Terminal Aerodrome Forecast
Issued by NWS Tampa Bay Area, FL

Home | Current Version | Previous Version | Text Only | Print | Product List | Glossary On
Versions: 1 2 3 4 5 6 7 8 9 10 11 12 13 14 15 16 17 18 19 20 21 22 23 24 25 26
869
FTUS42 KTBW 232028 AAA
TAFTPA
TAF AMD
KTPA 232028Z 2320/2418 07012G18KT P6SM VCSH BKN050
      TEMPO 2321/2324 5SM RA BR BKN035
     FM240000 07012G18KT P6SM FEW025
     FM240400 05009KT P6SM FEW020
     FM241400 09010G18KT P6SM SCT030=

USA.gov is the U.S. government's official web portal to all federal, state and local government web resources and services.